sensor_id;sensor_type;location;lat;lon;timestamp;pressure;altitude;pressure_sealevel;temperature;humidity
64343;BME280;50675;53.530;-6.312;2024-02-26T08:11:18;101288.19;;;5.97;67.81
64343;BME280;50675;53.530;-6.312;2024-02-26T09:21:55;101401.16;;;7.73;68.43
64343;BME280;50675;53.530;-6.312;2024-02-26T13:58:30;101589.16;;;10.53;64.85
64343;BME280;50675;53.530;-6.312;2024-02-26T14:00:56;101579.09;;;10.42;64.71
64343;BME280;50675;53.530;-6.312;2024-02-26T14:03:22;101577.59;;;10.46;64.94
64343;BME280;50675;53.530;-6.312;2024-02-26T14:05:48;101587.50;;;10.34;64.54
64343;BME280;50675;53.530;-6.312;2024-02-26T14:08:15;101590.41;;;10.33;64.53
64343;BME280;50675;53.530;-6.312;2024-02-26T14:10:40;101588.34;;;10.35;64.31
64343;BME280;50675;53.530;-6.312;2024-02-26T14:13:06;101577.06;;;10.38;64.34
64343;BME280;50675;53.530;-6.312;2024-02-26T14:15:33;101580.00;;;10.36;64.40
64343;BME280;50675;53.530;-6.312;2024-02-26T14:18:01;101571.31;;;10.52;64.17
64343;BME280;50675;53.530;-6.312;2024-02-26T14:20:29;101578.63;;;10.45;63.87
64343;BME280;50675;53.530;-6.312;2024-02-26T14:22:55;101568.59;;;10.34;64.04
64343;BME280;50675;53.530;-6.312;2024-02-26T14:25:21;101566.06;;;10.39;63.81
64343;BME280;50675;53.530;-6.312;2024-02-26T14:27:47;101570.31;;;10.47;64.08
64343;BME280;50675;53.530;-6.312;2024-02-26T14:30:13;101571.38;;;10.46;63.92
64343;BME280;50675;53.530;-6.312;2024-02-26T14:32:39;101581.28;;;10.52;63.84
64343;BME280;50675;53.530;-6.312;2024-02-26T14:35:06;101567.56;;;10.53;63.74
64343;BME280;50675;53.530;-6.312;2024-02-26T14:37:32;101579.19;;;10.54;63.52
64343;BME280;50675;53.530;-6.312;2024-02-26T14:39:58;101580.75;;;10.62;63.57
64343;BME280;50675;53.530;-6.312;2024-02-26T14:42:24;101584.88;;;10.46;63.53
64343;BME280;50675;53.530;-6.312;2024-02-26T14:44:51;101591.09;;;10.46;63.31
64343;BME280;50675;53.530;-6.312;2024-02-26T14:47:17;101588.19;;;10.48;63.36
64343;BME280;50675;53.530;-6.312;2024-02-26T14:49:43;101591.19;;;10.40;63.27
64343;BME280;50675;53.530;-6.312;2024-02-26T14:52:08;101591.72;;;10.48;63.03
64343;BME280;50675;53.530;-6.312;2024-02-26T14:54:34;101593.22;;;10.44;63.07
64343;BME280;50675;53.530;-6.312;2024-02-26T14:57:05;101585.31;;;10.43;63.19
64343;BME280;50675;53.530;-6.312;2024-02-26T14:59:31;101592.59;;;10.42;63.06
64343;BME280;50675;53.530;-6.312;2024-02-26T15:01:57;101595.59;;;10.34;63.03
64343;BME280;50675;53.530;-6.312;2024-02-26T15:04:25;101584.34;;;10.37;62.92
64343;BME280;50675;53.530;-6.312;2024-02-26T15:06:51;101586.00;;;10.20;62.72
64343;BME280;50675;53.530;-6.312;2024-02-26T15:09:17;101595.50;;;10.41;62.63
64343;BME280;50675;53.530;-6.312;2024-02-26T15:11:43;101601.84;;;10.35;62.79
64343;BME280;50675;53.530;-6.312;2024-02-26T15:14:10;101605.75;;;10.39;62.63
64343;BME280;50675;53.530;-6.312;2024-02-26T15:16:36;101616.84;;;10.49;62.56
64343;BME280;50675;53.530;-6.312;2024-02-26T15:19:02;101609.44;;;10.44;62.49
64343;BME280;50675;53.530;-6.312;2024-02-26T15:21:32;101608.50;;;10.32;62.17
64343;BME280;50675;53.530;-6.312;2024-02-26T15:23:58;101616.84;;;10.49;62.31
64343;BME280;50675;53.530;-6.312;2024-02-26T15:26:24;101623.25;;;10.55;62.31
64343;BME280;50675;53.530;-6.312;2024-02-26T15:28:52;101616.03;;;10.48;62.40
64343;BME280;50675;53.530;-6.312;2024-02-26T15:31:19;101620.22;;;10.44;62.25
64343;BME280;50675;53.530;-6.312;2024-02-26T15:33:45;101620.97;;;10.51;62.16
64343;BME280;50675;53.530;-6.312;2024-02-26T15:36:11;101616.19;;;10.53;62.02
64343;BME280;50675;53.530;-6.312;2024-02-26T15:38:37;101607.63;;;10.57;62.17
64343;BME280;50675;53.530;-6.312;2024-02-26T15:41:12;101615.88;;;10.62;61.97
64343;BME280;50675;53.530;-6.312;2024-02-26T15:43:39;101610.78;;;10.72;62.06
64343;BME280;50675;53.530;-6.312;2024-02-26T15:46:05;101615.66;;;10.45;61.95
